Time;durP1;ratioP1;P1;durP2;ratioP2;P2;SDS_P1;SDS_P2;PMS_P1;PMS_P2;Temp;Humidity;BMP_temperature;BMP_pressure;BME280_temperature;BME280_humidity;BME280_pressure;Samples;Min_cycle;Max_cycle;Signal;HPM_P1;HPM_P2
2022/10/08 00:01:45;;;;;;;10.85;1.40;;;;;;;14.51;100.00;98519.72;6236882;23;20011;-90
2022/10/08 00:04:23;;;;;;;10.40;1.65;;;;;;;13.94;100.00;98586.84;6234405;23;20008;-91
2022/10/08 00:06:49;;;;;;;8.50;1.80;;;;;;;13.83;100.00;98662.25;6237016;23;20008;-90
2022/10/08 00:09:15;;;;;;;8.15;1.45;;;;;;;14.30;100.00;98630.53;6235186;23;20020;-90
2022/10/08 00:11:41;;;;;;;11.35;1.50;;;;;;;15.53;100.00;98495.59;6238789;23;20433;-90
2022/10/08 00:14:09;;;;;;;9.45;1.23;;;;;;;14.12;100.00;98624.00;6235979;23;20012;-90
2022/10/08 00:16:39;;;;;;;11.55;1.85;;;;;;;14.17;100.00;98661.47;6237951;23;20012;-90
2022/10/08 00:19:10;;;;;;;12.32;1.85;;;;;;;18.07;100.00;98571.25;6235113;23;20008;-90
2022/10/08 00:21:41;;;;;;;9.32;1.80;;;;;;;17.36;100.00;98525.84;6235790;23;20153;-90
2022/10/08 00:24:11;;;;;;;13.00;1.30;;;;;;;17.08;100.00;98511.13;6233040;23;20023;-90
2022/10/08 00:26:37;;;;;;;10.23;1.48;;;;;;;17.60;100.00;98521.31;6232511;23;20024;-90
2022/10/08 00:29:04;;;;;;;9.65;1.38;;;;;;;16.62;100.00;98537.41;6233890;23;20016;-89
2022/10/08 00:31:35;;;;;;;7.68;1.20;;;;;;;17.13;100.00;98518.84;6233482;23;20083;-88
2022/10/08 00:34:06;;;;;;;10.30;1.30;;;;;;;17.93;100.00;98514.75;6233601;23;20078;-90
2022/10/08 00:36:33;;;;;;;7.82;1.17;;;;;;;13.62;100.00;98553.56;6233744;23;20059;-89
2022/10/08 00:39:01;;;;;;;8.10;0.98;;;;;;;13.47;100.00;98636.00;6224396;23;20011;-90
2022/10/08 00:41:29;;;;;;;7.50;1.02;;;;;;;14.05;100.00;98559.50;6236723;23;20515;-90
2022/10/08 00:44:02;;;;;;;4.53;0.90;;;;;;;13.74;100.00;98607.47;6234232;23;20505;-89
2022/10/08 00:46:34;;;;;;;7.85;1.33;;;;;;;16.52;100.00;98613.25;6227632;23;20022;-89
2022/10/08 00:49:14;;;;;;;6.32;0.95;;;;;;;14.21;100.00;98552.94;6225619;23;20004;-90
2022/10/08 00:51:48;;;;;;;11.57;1.30;;;;;;;16.71;100.00;98658.22;6233815;23;20456;-90
2022/10/08 00:54:18;;;;;;;7.00;1.17;;;;;;;13.64;100.00;98646.13;6233707;23;20460;-89
2022/10/08 00:56:46;;;;;;;9.77;1.20;;;;;;;17.31;100.00;98510.19;6235460;23;20012;-90
2022/10/08 00:59:12;;;;;;;6.55;1.20;;;;;;;19.18;100.00;98464.13;6235610;23;20016;-89
2022/10/08 01:01:42;;;;;;;12.38;1.23;;;;;;;14.44;100.00;98538.31;6234772;23;20016;-89
2022/10/08 01:04:10;;;;;;;7.95;1.17;;;;;;;14.52;100.00;98546.84;6234097;23;20008;-90
2022/10/08 01:06:54;;;;;;;7.32;1.05;;;;;;;14.07;100.00;98633.72;6235069;23;20012;-89
2022/10/08 01:09:39;;;;;;;;;;;;;;;13.54;100.00;98645.50;6235447;23;20019;-89
2022/10/08 01:12:23;;;;;;;6.60;0.98;;;;;;;13.80;100.00;98688.56;6234352;23;19912;-89
2022/10/08 01:15:00;;;;;;;6.20;0.95;;;;;;;13.90;100.00;98657.75;6235460;23;20350;-89
2022/10/08 01:17:32;;;;;;;8.77;1.40;;;;;;;13.60;100.00;98644.47;6237353;23;20418;-90
2022/10/08 01:20:26;;;;;;;9.32;2.03;;;;;;;13.87;100.00;98679.66;6235054;23;20184;-89
2022/10/08 01:23:11;;;;;;;9.18;1.15;;;;;;;13.85;100.00;98694.56;6234922;23;20090;-89
2022/10/08 01:26:03;;;;;;;6.88;1.10;;;;;;;14.18;100.00;98686.75;6236276;23;20054;-90
2022/10/08 01:28:55;;;;;;;10.32;1.27;;;;;;;14.07;100.00;98710.66;6236189;23;20007;-89
2022/10/08 01:31:33;;;;;;;11.30;1.55;;;;;;;14.00;100.00;98709.94;6236136;23;20027;-91
2022/10/08 01:34:03;;;;;;;9.40;1.63;;;;;;;14.09;100.00;98689.63;6233893;23;20015;-90
2022/10/08 01:36:37;;;;;;;15.27;1.58;;;;;;;13.97;100.00;98717.88;6235012;23;20012;-90
2022/10/08 01:39:10;;;;;;;14.10;2.53;;;;;;;14.03;100.00;98735.22;6233700;23;20007;-89
2022/10/08 01:41:42;;;;;;;9.57;1.75;;;;;;;13.90;100.00;98752.13;6236168;23;20012;-89
2022/10/08 01:44:15;;;;;;;9.70;1.63;;;;;;;14.21;100.00;98725.16;6235269;23;20546;-89
2022/10/08 01:46:45;;;;;;;12.98;2.10;;;;;;;14.32;100.00;98747.63;6234935;23;20012;-89
2022/10/08 01:49:16;;;;;;;13.10;1.88;;;;;;;14.22;100.00;98761.00;6232455;23;20074;-89
2022/10/08 01:51:55;;;;;;;10.80;2.13;;;;;;;18.90;100.00;99663.50;6234093;23;20008;-89
2022/10/08 01:54:28;;;;;;;9.75;1.80;;;;;;;14.87;100.00;98909.94;6233150;23;20011;-88
2022/10/08 01:56:57;;;;;;;13.32;1.65;;;;;;;20.16;100.00;98878.47;6235243;23;20042;-90
2022/10/08 01:59:38;;;;;;;11.60;1.95;;;;;;;14.29;100.00;98860.53;6230276;23;20011;-89
2022/10/08 02:02:25;;;;;;;8.40;1.42;;;;;;;14.32;100.00;98920.78;6223762;22;20051;-96
2022/10/08 02:05:09;;;;;;;;;;;;;;;;;;;;;
2022/10/08 02:08:16;;;;;;;10.40;1.67;;;;;;;14.10;100.00;98901.16;6243814;22;20019;-96
2022/10/08 02:10:44;;;;;;;9.63;1.95;;;;;;;14.06;100.00;98899.50;6241246;23;20020;-96
2022/10/08 02:13:56;;;;;;;9.65;1.90;;;;;;;14.96;100.00;98893.09;6252205;23;20031;-96
2022/10/08 02:16:57;;;;;;;11.80;2.00;;;;;;;14.48;100.00;98918.66;6249654;23;20003;-96
2022/10/08 02:19:51;;;;;;;11.50;2.13;;;;;;;18.73;100.00;98792.06;6218885;23;20015;-96
2022/10/08 02:23:24;;;;;;;13.73;2.13;;;;;;;14.68;100.00;98766.00;6151814;23;20313;-95
2022/10/08 02:26:27;;;;;;;;;;;;;;;;;;;;;
2022/10/08 02:29:33;;;;;;;13.02;2.90;;;;;;;14.72;100.00;98931.31;6127482;23;20096;-96
2022/10/08 02:32:58;;;;;;;13.93;3.33;;;;;;;15.07;100.00;98969.84;6126860;23;20009;-96
2022/10/08 02:36:32;;;;;;;14.57;3.80;;;;;;;14.50;100.00;98989.50;6131620;23;20014;-96
2022/10/08 02:39:45;;;;;;;14.05;4.45;;;;;;;14.40;100.00;99027.31;6108272;23;20033;-96
2022/10/08 02:42:44;;;;;;;12.05;4.90;;;;;;;14.59;100.00;98984.06;6112867;23;20015;-96
2022/10/08 02:46:03;;;;;;;15.13;4.38;;;;;;;14.96;100.00;99027.91;6086601;23;20069;-96
2022/10/08 02:49:12;;;;;;;12.50;4.28;;;;;;;14.38;100.00;99043.09;6076793;23;20062;-96
2022/10/08 02:51:42;;;;;;;12.82;4.72;;;;;;;14.64;100.00;99037.34;6068358;23;20006;-96
2022/10/08 02:54:11;;;;;;;16.80;5.25;;;;;;;14.62;100.00;98956.88;6044340;23;20070;-96
2022/10/08 02:56:45;;;;;;;17.33;5.18;;;;;;;17.13;100.00;99140.75;6069201;23;20136;-96
2022/10/08 02:59:13;;;;;;;13.23;5.03;;;;;;;14.97;100.00;98994.63;6065949;23;20110;-96
2022/10/08 03:02:00;;;;;;;10.45;4.30;;;;;;;14.53;100.00;99028.81;6062659;23;20521;-96
2022/10/08 03:07:42;;;;;;;9.32;3.15;;;;;;;14.77;100.00;99031.84;6070773;23;20018;-96
2022/10/08 03:10:15;;;;;;;15.02;3.20;;;;;;;14.52;100.00;99027.06;6089956;23;20010;-96
2022/10/08 03:15:34;;;;;;;12.85;4.40;;;;;;;15.42;100.00;99027.72;6121803;23;20029;-96
2022/10/08 03:18:50;;;;;;;13.35;4.32;;;;;;;16.27;100.00;98868.50;6105676;23;20020;-96
2022/10/08 03:21:35;;;;;;;13.00;4.25;;;;;;;14.82;100.00;98906.56;6120906;23;20017;-96
2022/10/08 03:24:19;;;;;;;15.98;4.93;;;;;;;16.63;100.00;98820.00;6200437;23;20016;-96
2022/10/08 03:26:51;;;;;;;;;;;;;;;17.13;100.00;98919.38;6192345;23;20064;-96
2022/10/08 03:29:25;;;;;;;16.35;4.32;;;;;;;17.05;100.00;98803.72;6195033;23;19914;-96
2022/10/08 03:31:56;;;;;;;14.25;3.88;;;;;;;17.26;100.00;98770.47;6193872;23;20057;-96
2022/10/08 03:34:42;;;;;;;14.98;3.92;;;;;;;16.32;100.00;98829.72;6193697;23;20020;-96
2022/10/08 03:38:03;;;;;;;;;;;;;;;;;;;;;
2022/10/08 03:44:53;;;;;;;14.02;4.45;;;;;;;16.47;100.00;98780.16;6215596;23;20075;-96
2022/10/08 03:47:54;;;;;;;15.85;5.32;;;;;;;16.78;100.00;98798.41;6219364;23;20127;-96
2022/10/08 03:50:26;;;;;;;17.25;5.10;;;;;;;16.55;100.00;98809.72;6169504;23;20016;-96
2022/10/08 03:53:47;;;;;;;12.45;4.05;;;;;;;16.41;100.00;98817.19;6205420;23;20000;-96
2022/10/08 03:56:56;;;;;;;13.07;4.57;;;;;;;16.61;100.00;98782.34;6202885;23;20016;-96
2022/10/08 03:59:30;;;;;;;14.80;3.65;;;;;;;15.54;100.00;98748.78;6180332;23;20013;-95
2022/10/08 04:02:03;;;;;;;14.80;3.35;;;;;;;16.37;100.00;98780.44;6184875;23;20688;-95
2022/10/08 04:05:12;;;;;;;15.13;4.07;;;;;;;16.55;100.00;98779.00;6183318;23;20023;-95
2022/10/08 04:07:47;;;;;;;15.27;3.80;;;;;;;16.34;100.00;98761.28;6187965;23;20020;-96
2022/10/08 04:10:59;;;;;;;15.13;4.13;;;;;;;16.70;100.00;98780.25;6191066;23;20431;-95
2022/10/08 04:16:46;;;;;;;19.77;5.15;;;;;;;18.20;100.00;98722.03;6216228;23;20019;-96
2022/10/08 04:19:39;;;;;;;12.27;4.15;;;;;;;17.77;100.00;98721.06;6188218;23;20008;-94
2022/10/08 04:22:58;;;;;;;17.27;4.88;;;;;;;17.36;100.00;98734.94;6214019;23;20062;-96
2022/10/08 04:26:00;;;;;;;14.23;3.50;;;;;;;16.28;100.00;98772.00;6187500;23;20032;-95
2022/10/08 04:28:48;;;;;;;16.52;3.30;;;;;;;16.53;100.00;98762.41;6190128;23;20049;-96
2022/10/08 04:31:48;;;;;;;13.75;3.20;;;;;;;13.98;100.00;98836.72;6154383;23;20005;-96
2022/10/08 04:37:24;;;;;;;12.00;2.72;;;;;;;17.66;100.00;98798.00;6153432;23;20006;-96
2022/10/08 04:40:11;;;;;;;17.08;3.50;;;;;;;13.94;100.00;98867.38;6153443;23;20021;-95
2022/10/08 04:43:07;;;;;;;12.75;2.88;;;;;;;16.28;100.00;98828.09;6152419;23;20021;-95
2022/10/08 04:46:04;;;;;;;12.75;2.05;;;;;;;15.89;100.00;98810.00;6154437;23;20141;-95
2022/10/08 04:48:30;;;;;;;14.35;2.20;;;;;;;15.75;100.00;98825.31;6153353;23;20005;-95
2022/10/08 04:51:52;;;;;;;11.98;2.13;;;;;;;15.63;100.00;98830.00;6130944;23;20036;-96
2022/10/08 04:54:55;;;;;;;;;;;;;;;;;;;;;
2022/10/08 04:57:38;;;;;;;9.88;1.70;;;;;;;15.82;100.00;98843.53;6211324;23;20092;-95
2022/10/08 05:03:13;;;;;;;11.35;1.70;;;;;;;15.97;100.00;98751.91;6242876;22;20023;-95
2022/10/08 05:06:19;;;;;;;15.18;1.88;;;;;;;15.86;100.00;98826.72;6246320;23;20070;-96
2022/10/08 05:09:01;;;;;;;8.18;1.45;;;;;;;16.79;100.00;98780.88;6208689;23;20018;-95
2022/10/08 05:15:14;;;;;;;11.20;1.48;;;;;;;16.78;100.00;98782.63;6242430;22;20022;-96
2022/10/08 05:18:21;;;;;;;;;;;;;;;;;;;;;
2022/10/08 05:21:14;;;;;;;10.50;1.45;;;;;;;15.53;100.00;98821.53;6223355;22;20094;-96
2022/10/08 05:24:11;;;;;;;13.82;1.70;;;;;;;16.57;100.00;98810.53;6245043;23;20098;-96
2022/10/08 05:26:57;;;;;;;;;;;;;;;;;;;;;
2022/10/08 05:40:09;;;;;;;11.57;1.40;;;;;;;16.81;100.00;98798.34;6158180;23;20084;-96
2022/10/08 05:43:04;;;;;;;10.55;1.85;;;;;;;16.17;100.00;98801.28;6158580;23;20018;-96
2022/10/08 05:49:23;;;;;;;12.52;1.73;;;;;;;17.51;100.00;98819.66;6157109;23;20020;-95
2022/10/08 05:52:31;;;;;;;10.88;1.58;;;;;;;17.10;100.00;98787.72;6132976;23;20097;-96
2022/10/08 05:58:35;;;;;;;12.80;2.35;;;;;;;17.91;100.00;98853.38;6072095;23;20070;-95
2022/10/08 06:01:19;;;;;;;12.88;1.55;;;;;;;16.78;100.00;98824.75;6050766;23;20026;-96
2022/10/08 06:03:55;;;;;;;12.00;1.70;;;;;;;17.25;100.00;98804.78;6059201;23;20078;-96
2022/10/08 06:06:39;;;;;;;16.60;1.70;;;;;;;14.62;100.00;98892.13;6146174;23;20005;-96
2022/10/08 06:09:36;;;;;;;10.35;1.88;;;;;;;15.01;100.00;98923.59;6174804;23;20021;-95
2022/10/08 06:12:26;;;;;;;9.55;1.17;;;;;;;18.69;100.00;98823.94;6165639;23;20125;-96
2022/10/08 06:15:00;;;;;;;12.68;1.80;;;;;;;18.75;100.00;98792.00;6164849;23;20005;-96
2022/10/08 06:17:49;;;;;;;10.68;2.17;;;;;;;18.60;100.00;98781.13;6170417;23;20036;-96
2022/10/08 06:20:30;;;;;;;10.95;1.25;;;;;;;18.87;100.00;98801.16;6163204;23;20012;-96
2022/10/08 06:23:34;;;;;;;;;;;;;;;;;;;;;
2022/10/08 06:26:20;;;;;;;13.57;2.10;;;;;;;18.80;100.00;98789.16;6181281;23;20076;-96
2022/10/08 06:28:49;;;;;;;10.98;2.05;;;;;;;18.69;100.00;98790.47;6159510;23;20013;-96
2022/10/08 06:31:24;;;;;;;12.75;1.70;;;;;;;19.87;100.00;98769.50;6158877;23;20075;-96
2022/10/08 06:34:21;;;;;;;15.18;2.17;;;;;;;19.71;100.00;98759.59;6165759;23;20005;-95
2022/10/08 06:45:10;;;;;;;13.07;1.98;;;;;;;18.80;100.00;98778.56;6138068;23;20022;-96
2022/10/08 06:52:13;;;;;;;;;;;;;;;;;;;;;
2022/10/08 07:05:32;;;;;;;10.90;1.30;;;;;;;18.85;100.00;98840.03;5886083;24;20140;-96
2022/10/08 07:18:49;;;;;;;14.40;1.55;;;;;;;17.74;100.00;98898.81;5930693;24;20008;-96
2022/10/08 07:21:31;;;;;;;14.90;2.10;;;;;;;17.50;100.00;98886.50;6081429;23;20119;-96
2022/10/08 07:25:02;;;;;;;;;;;;;;;;;;;;;
2022/10/08 07:28:11;;;;;;;11.90;1.88;;;;;;;17.09;100.00;98894.91;6105005;23;20002;-96
2022/10/08 07:31:10;;;;;;;12.07;1.73;;;;;;;16.54;100.00;98950.19;6100016;23;20006;-96
2022/10/08 07:37:39;;;;;;;13.07;1.80;;;;;;;18.22;100.00;98922.63;6018824;23;20011;-96
2022/10/08 07:40:19;;;;;;;9.50;1.70;;;;;;;16.60;100.00;98917.53;5923452;24;20021;-96
2022/10/08 07:43:33;;;;;;;;;;;;;;;;;;;;;
2022/10/08 07:47:09;;;;;;;;;;;;;;;;;;;;;
2022/10/08 07:53:26;;;;;;;11.88;1.58;;;;;;;17.13;100.00;98964.16;6006035;23;20008;-96
2022/10/08 07:56:19;;;;;;;16.38;1.95;;;;;;;17.22;100.00;98937.53;6014272;23;20052;-96
2022/10/08 07:59:33;;;;;;;9.70;1.40;;;;;;;16.45;100.00;98943.44;6021613;23;20018;-96
2022/10/08 08:05:15;;;;;;;10.35;2.10;;;;;;;17.47;100.00;98944.63;6013788;23;20048;-96
2022/10/08 08:08:07;;;;;;;9.93;1.73;;;;;;;17.26;100.00;98948.81;5958380;24;20020;-95
2022/10/08 08:11:10;;;;;;;9.38;1.77;;;;;;;17.26;100.00;98944.41;5954191;24;20017;-96
2022/10/08 08:13:45;;;;;;;8.82;1.42;;;;;;;17.40;100.00;98930.78;5992263;23;20085;-96
2022/10/08 08:16:46;;;;;;;11.02;1.45;;;;;;;17.55;100.00;98934.63;6071563;23;20012;-96
2022/10/08 08:19:46;;;;;;;15.20;1.65;;;;;;;15.85;100.00;98972.31;6037221;23;20426;-96
2022/10/08 08:22:25;;;;;;;10.93;1.52;;;;;;;17.08;100.00;98968.72;6013720;23;20011;-96
2022/10/08 08:24:58;;;;;;;7.57;1.35;;;;;;;16.69;100.00;98977.81;6015128;23;20019;-96
2022/10/08 08:27:29;;;;;;;;;;;;;;;17.58;100.00;99000.47;6039914;23;20063;-96
2022/10/08 08:30:18;;;;;;;12.73;1.70;;;;;;;17.57;100.00;98996.97;6016253;23;19910;-96
2022/10/08 08:33:21;;;;;;;13.35;1.88;;;;;;;17.58;100.00;98972.31;6016639;23;20042;-96
2022/10/08 08:41:00;;;;;;;14.00;1.70;;;;;;;15.69;100.00;99040.16;6011925;23;20115;-96
2022/10/08 08:43:34;;;;;;;13.45;1.60;;;;;;;15.60;100.00;99085.13;6010342;23;20024;-96
2022/10/08 08:53:46;;;;;;;10.02;1.50;;;;;;;16.64;100.00;99099.06;6142362;23;20021;-96
2022/10/08 09:04:30;;;;;;;13.40;1.65;;;;;;;17.03;100.00;99103.25;6016010;23;20039;-96
2022/10/08 09:07:24;;;;;;;14.80;1.92;;;;;;;17.06;100.00;99064.53;5987673;24;20051;-96
2022/10/08 09:10:57;;;;;;;12.93;1.75;;;;;;;17.19;100.00;99074.69;5961181;24;20099;-96
2022/10/08 09:14:16;;;;;;;15.63;1.90;;;;;;;16.86;100.00;99077.38;5961369;24;20510;-96
2022/10/08 09:17:48;;;;;;;11.73;1.73;;;;;;;16.90;100.00;99065.88;5979632;24;20012;-96
2022/10/08 09:20:28;;;;;;;12.15;1.70;;;;;;;16.58;100.00;99085.25;5980754;24;20454;-96
2022/10/08 09:24:02;;;;;;;14.55;1.77;;;;;;;16.92;100.00;99084.28;5979253;24;20015;-96
2022/10/08 09:26:45;;;;;;;12.25;2.28;;;;;;;16.87;100.00;99098.41;5981991;23;20016;-96
2022/10/08 09:33:18;;;;;;;13.13;2.25;;;;;;;17.57;100.00;99067.31;5914579;23;20020;-96
2022/10/08 09:36:30;;;;;;;11.02;2.53;;;;;;;18.53;100.00;99053.50;6156293;23;20076;-96
2022/10/08 09:39:58;;;;;;;;;;;;;;;;;;;;;
2022/10/08 09:43:32;;;;;;;;;;;;;;;;;;;;;
2022/10/08 09:49:52;;;;;;;;;;;;;;;;;;;;;
2022/10/08 09:52:54;;;;;;;;;;;;;;;;;;;;;
2022/10/08 09:59:19;;;;;;;8.52;1.77;;;;;;;18.08;100.00;99040.09;6163236;23;20017;-96
2022/10/08 10:01:57;;;;;;;13.80;2.00;;;;;;;17.46;100.00;99046.56;6154518;23;20001;-96
2022/10/08 10:04:40;;;;;;;11.65;1.88;;;;;;;20.30;100.00;99011.09;6158603;23;20009;-96
2022/10/08 10:07:19;;;;;;;14.60;1.95;;;;;;;19.88;100.00;98996.19;6156722;23;20699;-96
2022/10/08 10:10:06;;;;;;;13.52;2.67;;;;;;;18.23;100.00;99040.47;6183486;23;20005;-96
2022/10/08 10:12:37;;;;;;;13.00;1.88;;;;;;;18.81;100.00;99015.47;6157922;23;20032;-96
2022/10/08 10:15:44;;;;;;;11.77;2.00;;;;;;;18.69;100.00;99012.38;6162159;23;20058;-96
2022/10/08 10:19:03;;;;;;;12.90;1.58;;;;;;;21.57;100.00;98971.53;6171302;23;20011;-96
2022/10/08 10:22:03;;;;;;;10.63;2.35;;;;;;;20.50;100.00;98988.13;6103197;23;20021;-96
2022/10/08 10:28:17;;;;;;;14.23;1.77;;;;;;;19.06;100.00;99000.38;6134235;23;20013;-96
2022/10/08 10:34:24;;;;;;;7.78;1.42;;;;;;;18.49;100.00;99046.59;6158197;23;20032;-96
2022/10/08 10:37:27;;;;;;;8.93;1.50;;;;;;;19.05;100.00;99009.25;6133243;23;20702;-96
2022/10/08 10:40:29;;;;;;;16.02;1.95;;;;;;;18.91;100.00;99028.28;6135024;23;20021;-96
2022/10/08 10:43:21;;;;;;;7.30;1.25;;;;;;;18.53;100.00;99013.88;6108552;23;20010;-96
2022/10/08 10:46:50;;;;;;;8.27;1.35;;;;;;;18.89;100.00;99031.91;6151936;23;20498;-96
2022/10/08 10:49:42;;;;;;;;;;;;;;;;;;;;;
2022/10/08 10:52:48;;;;;;;7.22;1.30;;;;;;;18.68;100.00;99001.88;6159299;23;20033;-96
2022/10/08 10:55:41;;;;;;;11.00;1.60;;;;;;;18.91;100.00;99006.28;6136558;23;20017;-96
2022/10/08 11:02:13;;;;;;;8.93;1.35;;;;;;;18.59;100.00;98995.13;6133516;23;20016;-96
2022/10/08 11:05:33;;;;;;;9.00;2.05;;;;;;;18.86;100.00;99003.78;6109185;23;20022;-96
2022/10/08 11:19:01;;;;;;;10.52;1.85;;;;;;;21.66;100.00;98972.84;6044511;23;20026;-96
2022/10/08 11:22:40;;;;;;;8.48;1.40;;;;;;;21.29;100.00;98969.38;6074539;23;20082;-96
2022/10/08 11:29:26;;;;;;;11.05;1.55;;;;;;;20.46;100.00;98969.72;6071113;23;20163;-96
2022/10/08 11:32:28;;;;;;;10.02;1.45;;;;;;;20.60;100.00;98965.59;5988983;23;20011;-96
2022/10/08 11:35:56;;;;;;;;;;;;;;;;;;;;;
2022/10/08 11:39:36;;;;;;;12.63;1.52;;;;;;;18.80;100.00;98995.22;6009025;23;20078;-96
2022/10/08 11:42:39;;;;;;;11.60;1.55;;;;;;;18.15;100.00;98985.31;6006425;23;20019;-96
2022/10/08 11:45:23;;;;;;;7.78;1.10;;;;;;;18.81;100.00;98989.88;6067492;23;20023;-96
2022/10/08 11:52:21;;;;;;;13.75;1.70;;;;;;;19.37;100.00;98985.94;6096853;23;20029;-96
2022/10/08 11:55:03;;;;;;;14.52;2.13;;;;;;;19.08;100.00;98982.69;6011854;23;20616;-96
2022/10/08 13:11:16;;;;;;;10.93;1.55;;;;;;;22.45;100.00;98958.09;6252801;22;20035;-94
2022/10/08 13:19:39;;;;;;;7.65;1.60;;;;;;;22.31;100.00;98957.03;6251082;22;20035;-96
2022/10/08 13:22:35;;;;;;;10.82;1.58;;;;;;;22.28;100.00;98945.72;6236719;22;20008;-96
2022/10/08 13:25:33;;;;;;;11.15;1.60;;;;;;;21.75;100.00;98960.91;6168353;22;20011;-96
2022/10/08 13:28:36;;;;;;;7.65;1.48;;;;;;;22.19;100.00;98965.66;6245479;23;20039;-96
2022/10/08 13:31:23;;;;;;;13.60;1.50;;;;;;;22.43;100.00;98960.84;6271991;22;20012;-96
2022/10/08 13:34:33;;;;;;;11.23;1.40;;;;;;;20.11;100.00;98961.63;6278187;22;20004;-96
2022/10/08 13:45:05;;;;;;;5.55;1.10;;;;;;;22.70;100.00;98962.06;6284559;22;20065;-96
2022/10/08 13:47:37;;;;;;;11.80;1.60;;;;;;;22.75;100.00;98960.88;6276396;22;20020;-96
2022/10/08 13:50:52;;;;;;;10.05;1.52;;;;;;;21.94;100.00;98955.50;6278087;22;20026;-96
2022/10/08 13:53:25;;;;;;;9.55;1.80;;;;;;;21.32;100.00;98974.50;6245552;22;19999;-96
2022/10/08 13:55:51;;;;;;;12.27;1.67;;;;;;;21.87;100.00;98959.41;6214801;23;20086;-96
2022/10/08 13:58:18;;;;;;;11.38;1.40;;;;;;;21.97;100.00;98971.25;6213746;23;20027;-95
2022/10/08 14:00:45;;;;;;;14.50;2.00;;;;;;;22.45;100.00;98974.94;6215362;23;20008;-95
2022/10/08 14:03:12;;;;;;;8.07;1.45;;;;;;;24.46;97.65;98986.41;6214758;23;20008;-94
2022/10/08 14:05:42;;;;;;;9.88;1.50;;;;;;;23.61;96.81;98978.19;6213749;23;20760;-94
2022/10/08 14:08:17;;;;;;;10.15;1.30;;;;;;;23.00;100.00;98968.31;6214960;23;20430;-96
2022/10/08 14:10:43;;;;;;;11.88;1.55;;;;;;;22.73;100.00;98970.75;6214733;23;20034;-94
2022/10/08 14:13:15;;;;;;;10.50;1.83;;;;;;;24.92;90.04;98963.97;6214832;23;20008;-95
2022/10/08 14:15:44;;;;;;;7.50;1.23;;;;;;;23.34;91.70;98976.22;6214615;23;20012;-95
2022/10/08 14:18:10;;;;;;;9.25;1.10;;;;;;;24.47;88.78;98972.97;6241835;23;20237;-94
2022/10/08 14:20:36;;;;;;;8.43;1.45;;;;;;;24.38;87.60;98962.88;6214827;23;20106;-95
2022/10/08 14:23:04;;;;;;;11.13;1.75;;;;;;;23.79;91.94;98968.25;6216474;23;20000;-95
2022/10/08 14:25:30;;;;;;;13.88;1.77;;;;;;;24.30;83.31;98975.81;6215781;23;20146;-94
2022/10/08 14:27:57;;;;;;;12.90;1.88;;;;;;;21.88;92.77;98958.47;6217149;23;20084;-94
2022/10/08 14:30:24;;;;;;;8.02;1.10;;;;;;;22.85;91.86;98966.53;6217759;23;20011;-92
2022/10/08 14:32:50;;;;;;;9.18;1.52;;;;;;;20.89;100.00;98953.63;6217011;23;20031;-93
2022/10/08 14:35:18;;;;;;;9.70;1.42;;;;;;;21.05;100.00;98945.78;6243988;23;20015;-94
2022/10/08 14:37:44;;;;;;;11.15;1.73;;;;;;;21.03;100.00;98955.63;6217052;23;20058;-94
2022/10/08 14:40:21;;;;;;;8.52;1.42;;;;;;;21.05;100.00;98960.84;6244208;23;20000;-94
2022/10/08 14:42:47;;;;;;;10.85;1.25;;;;;;;21.63;100.00;98949.97;6217699;23;20082;-94
2022/10/08 14:45:13;;;;;;;9.93;1.33;;;;;;;21.33;100.00;98965.63;6217132;23;20042;-94
2022/10/08 14:47:41;;;;;;;8.70;1.35;;;;;;;21.12;100.00;98963.09;6217469;23;20000;-94
2022/10/08 14:50:07;;;;;;;8.35;1.50;;;;;;;21.42;100.00;98959.88;6216963;23;20083;-94
2022/10/08 14:52:37;;;;;;;9.98;1.35;;;;;;;20.23;100.00;98973.41;6215659;23;20078;-94
2022/10/08 14:55:05;;;;;;;7.07;1.48;;;;;;;21.09;100.00;98963.25;6235058;23;20055;-93
2022/10/08 14:57:30;;;;;;;10.85;1.77;;;;;;;21.00;100.00;98953.09;6241954;23;20004;-94
2022/10/08 14:59:58;;;;;;;10.75;1.70;;;;;;;20.83;100.00;98961.00;6247265;22;20015;-95
2022/10/08 15:02:23;;;;;;;9.18;1.30;;;;;;;21.12;100.00;98960.44;6247405;22;19999;-93
2022/10/08 15:04:49;;;;;;;12.40;1.52;;;;;;;20.63;100.00;98960.13;6248015;22;20426;-95
2022/10/08 15:07:14;;;;;;;11.73;1.35;;;;;;;20.48;100.00;98961.72;6248119;22;20016;-93
2022/10/08 15:09:43;;;;;;;10.98;1.52;;;;;;;21.27;100.00;98945.56;6246614;22;20310;-96
2022/10/08 15:12:09;;;;;;;8.45;1.40;;;;;;;20.85;100.00;98949.41;6245034;22;20103;-95
2022/10/08 15:14:34;;;;;;;13.05;1.92;;;;;;;21.37;100.00;98940.66;6244530;22;20035;-95
2022/10/08 15:17:00;;;;;;;9.18;1.70;;;;;;;20.66;100.00;98941.44;6247256;22;20003;-96
2022/10/08 15:19:25;;;;;;;7.65;1.35;;;;;;;20.13;100.00;98943.84;6273207;22;20008;-93
2022/10/08 15:21:51;;;;;;;5.63;1.05;;;;;;;20.22;100.00;98944.38;6246056;22;20031;-95
2022/10/08 15:24:16;;;;;;;9.50;1.45;;;;;;;23.39;98.62;98957.31;6246701;22;20030;-93
2022/10/08 15:26:42;;;;;;;9.45;1.42;;;;;;;21.25;100.00;98952.75;6276183;22;20380;-93
2022/10/08 15:29:07;;;;;;;8.52;1.33;;;;;;;20.92;100.00;98955.28;6276396;22;20235;-94
2022/10/08 15:31:33;;;;;;;9.90;1.40;;;;;;;21.06;100.00;98954.59;6247287;22;20026;-94
2022/10/08 15:33:58;;;;;;;8.68;1.80;;;;;;;21.07;100.00;98953.66;6248070;22;20642;-93
2022/10/08 15:36:29;;;;;;;10.23;1.25;;;;;;;22.69;100.00;98958.56;6247969;22;20065;-95
2022/10/08 15:39:13;;;;;;;7.80;1.20;;;;;;;22.84;100.00;98955.03;6250803;22;20011;-95
2022/10/08 15:41:44;;;;;;;12.90;1.92;;;;;;;22.06;100.00;98954.84;6247545;22;20095;-94
2022/10/08 15:44:13;;;;;;;10.95;1.60;;;;;;;22.61;100.00;98942.19;6248760;22;20016;-95
2022/10/08 15:46:41;;;;;;;8.05;1.20;;;;;;;22.03;100.00;98948.84;6248284;22;20011;-95
2022/10/08 15:49:07;;;;;;;9.32;1.55;;;;;;;22.97;100.00;98941.91;6249669;22;20004;-95
2022/10/08 15:51:33;;;;;;;9.48;1.73;;;;;;;23.68;97.66;98947.59;6249666;22;20432;-94
2022/10/08 15:53:59;;;;;;;8.82;1.30;;;;;;;22.15;100.00;98932.25;6276068;22;20557;-93
2022/10/08 15:56:25;;;;;;;12.73;1.65;;;;;;;21.24;100.00;98939.53;6250434;22;20106;-93
2022/10/08 15:58:59;;;;;;;7.45;1.33;;;;;;;21.39;100.00;98945.88;6250188;22;20014;-94
2022/10/08 16:01:25;;;;;;;11.00;2.00;;;;;;;21.06;100.00;98949.31;6277388;22;19992;-95
2022/10/08 16:03:56;;;;;;;8.80;1.20;;;;;;;20.57;100.00;98948.03;6249753;22;20014;-96
2022/10/08 16:06:30;;;;;;;9.07;1.52;;;;;;;20.43;100.00;98953.97;6246917;22;20011;-93
2022/10/08 16:08:56;;;;;;;7.07;1.23;;;;;;;21.37;100.00;98955.72;6247988;22;20188;-94
2022/10/08 16:11:26;;;;;;;14.13;1.58;;;;;;;19.92;100.00;98963.34;6248451;22;20007;-94
2022/10/08 16:14:13;;;;;;;7.88;1.40;;;;;;;19.07;100.00;98961.63;6275212;22;20069;-95
2022/10/08 16:16:40;;;;;;;4.40;0.90;;;;;;;19.89;100.00;98948.47;6248329;22;20063;-95
2022/10/08 16:19:08;;;;;;;9.02;1.10;;;;;;;19.45;100.00;98953.84;6247283;22;20003;-94
2022/10/08 16:21:36;;;;;;;9.07;1.27;;;;;;;20.22;100.00;98944.38;6249732;22;19991;-93
2022/10/08 16:24:04;;;;;;;8.77;1.40;;;;;;;20.45;100.00;98945.97;6250261;22;20069;-95
2022/10/08 16:26:33;;;;;;;8.90;1.13;;;;;;;20.43;100.00;98942.50;6249636;22;19999;-95
2022/10/08 16:29:03;;;;;;;6.97;1.33;;;;;;;21.46;96.27;98947.28;6249475;22;20022;-95
2022/10/08 16:31:34;;;;;;;7.78;1.05;;;;;;;21.20;100.00;98956.59;6276426;22;20008;-95
2022/10/08 16:34:03;;;;;;;6.70;1.15;;;;;;;20.57;100.00;98949.81;6249154;22;20117;-95
2022/10/08 16:36:36;;;;;;;7.55;1.20;;;;;;;20.13;100.00;98946.50;6276045;22;20917;-95
2022/10/08 16:39:03;;;;;;;9.17;1.33;;;;;;;19.22;100.00;98953.06;6276109;22;20010;-95
2022/10/08 16:41:30;;;;;;;9.23;1.20;;;;;;;20.59;100.00;98940.00;6253271;22;20019;-95
2022/10/08 16:43:59;;;;;;;8.13;1.40;;;;;;;19.75;100.00;98943.75;6255823;22;20094;-96
2022/10/08 16:46:33;;;;;;;11.75;1.80;;;;;;;20.57;100.00;98945.41;6281043;22;20491;-95
2022/10/08 16:49:14;;;;;;;7.20;1.20;;;;;;;20.60;100.00;98949.69;6248577;22;20045;-96
2022/10/08 16:51:42;;;;;;;10.63;1.40;;;;;;;19.32;100.00;98947.34;6246983;22;20424;-95
2022/10/08 16:54:12;;;;;;;10.48;1.45;;;;;;;19.00;100.00;98931.91;6231820;23;20012;-95
2022/10/08 16:56:41;;;;;;;7.13;1.20;;;;;;;20.16;100.00;98940.22;6212304;23;20069;-95